CheckWX is a tool to help pilots better visualize weather data.  It is not intended as a substitute for an official pre-flight weather briefing.

21:08:32 UTC

KLOM METAR
Wings Field Airport
Philadelphia, Pennsylvania, USA
Current

34 mins ago

KLOM 102035Z AUTO 33005KT 5SM -RA BR SCT012 BKN019 OVC042 23/23 A2967 RMK AO2 P0001 T02300226
Observed
Jul-10 @ 20:35 UTC
Wind
  • 330° at 5 KTS
Visibility
5 SM
Flight Rules
MVFR
Conditions
Light Rain, Mist
Cloud Levels
  • Scattered at 1,200' AGL
  • Broken at 1,900' AGL
  • Overcast at 4,200' AGL
Temperature
23°C / 73°F
Dewpoint
23°C / 73°F
Humidity
100%
Altimeter
29.67" Hg
Pressure
1004.72 hPa
Current Rain
0.01"
Previous

54 mins ago

KLOM 102015Z AUTO 33006KT 10SM -RA SCT008 BKN024 OVC043 23/22 A2968 RMK AO2 P0001 T02280224
Observed
Jul-10 @ 20:15 UTC
Wind
  • 330° at 6 KTS
Visibility
10 SM
Flight Rules
MVFR
Conditions
Light Rain
Cloud Levels
  • Scattered at 800' AGL
  • Broken at 2,400' AGL
  • Overcast at 4,300' AGL
Temperature
23°C / 73°F
Dewpoint
22°C / 72°F
Humidity
94%
Altimeter
29.68" Hg
Pressure
1005.12 hPa
Current Rain
0.01"
Previous

1 hour ago

KLOM 101955Z AUTO 32006KT 5SM -RA BR SCT010 BKN026 OVC120 23/22 A2969 RMK AO2 P0001 T02270222
Observed
Jul-10 @ 19:55 UTC
Wind
  • 320° at 6 KTS
Visibility
5 SM
Flight Rules
MVFR
Conditions
Light Rain, Mist
Cloud Levels
  • Scattered at 1,000' AGL
  • Broken at 2,600' AGL
  • Overcast at 12,000' AGL
Temperature
23°C / 73°F
Dewpoint
22°C / 72°F
Humidity
94%
Altimeter
29.69" Hg
Pressure
1005.42 hPa
Current Rain
0.01"